Αρχική σελίδα
METAR-TAF:

METAR-TAF

Αεροδρόμια :

Cape Parry, Βορειοδυτικά Εδάφη, Καναδάς

γεωγραφικό πλάτος: 70-06N, γεωγραφικό μήκος: 124-43W, υψόμετρο: 87 μ

Παρών καιρός

Η αναφορά έγινε 28 λεπτά πριν, στις 11:00 UTC
Άνεμος 16 kt από Α
Θερμοκρασία -22°C
Υγρασία 76%
Πίεση 1004 hPa
Διάσπαρτα νέφη σε ύψος 13000 πόδια

METAR: CZCP 131100Z AUTO 08016KT ////SM //// SCT130 M22/M25 A2966

Χρόνος: 04:28 (11:28 UTC)


TAF: λείπει

Μετεωρολογικές αναφορές και προγνώσεις για περισσότερα από 4000 αεροδρόμια (δελτία METAR και TAF).

Οι διαθέσιμοι σταθμοί απεικονίζονται στο χάρτη με κίτρινες και κόκκινες κουκκίδες.

Μετακινήστε το ποντίκι πάνω από τις κουκκίδες για να δείτε το όνομα του σταθμού.

Στη συνέχεια, κάντε κλικ για να δείτε τις μετεωρολογικές αναφορές και τις προγνώσεις καιρού.

Για να αλλάξετε το χάρτη: κάντε κλικ στα πράσινα κουμπιά με τον μαύρο σταυρό για να ζουμάρετε, στο πράσινο κουμπί με την παύλα για να αφαιρέσετε το ζουμ ή στα πράσινα βέλη για να αντιπαραβάλλετε χάρτες.


METAR-TAF: